sensor_id;sensor_type;location;lat;lon;timestamp;pressure;altitude;pressure_sealevel;temperature;humidity
37694;BME280;23531;50.122;8.644;2023-02-23T00:02:08;100185.78;;;10.70;nan
37694;BME280;23531;50.122;8.644;2023-02-23T00:04:10;100183.25;;;10.81;nan
37694;BME280;23531;50.122;8.644;2023-02-23T00:06:11;100188.13;;;10.91;nan
37694;BME280;23531;50.122;8.644;2023-02-23T00:08:13;100187.47;;;10.96;nan
37694;BME280;23531;50.122;8.644;2023-02-23T00:10:14;100181.09;;;10.90;nan
37694;BME280;23531;50.122;8.644;2023-02-23T00:12:17;100184.84;;;10.89;nan
37694;BME280;23531;50.122;8.644;2023-02-23T00:14:20;100185.84;;;10.95;nan
37694;BME280;23531;50.122;8.644;2023-02-23T00:16:24;100182.09;;;10.96;nan
37694;BME280;23531;50.122;8.644;2023-02-23T00:18:26;100183.94;;;10.95;nan
37694;BME280;23531;50.122;8.644;2023-02-23T00:20:29;100183.38;;;10.93;nan
37694;BME280;23531;50.122;8.644;2023-02-23T00:22:31;100191.13;;;10.76;nan
37694;BME280;23531;50.122;8.644;2023-02-23T00:24:32;100179.13;;;10.79;nan
37694;BME280;23531;50.122;8.644;2023-02-23T00:26:36;100186.28;;;10.53;nan
37694;BME280;23531;50.122;8.644;2023-02-23T00:28:39;100191.72;;;10.40;nan
37694;BME280;23531;50.122;8.644;2023-02-23T00:30:41;100190.50;;;10.43;nan
37694;BME280;23531;50.122;8.644;2023-02-23T00:32:45;100190.91;;;10.40;nan
37694;BME280;23531;50.122;8.644;2023-02-23T00:34:48;100190.84;;;10.53;nan
37694;BME280;23531;50.122;8.644;2023-02-23T00:36:49;100186.66;;;10.64;nan
37694;BME280;23531;50.122;8.644;2023-02-23T00:38:51;100190.59;;;10.61;nan
37694;BME280;23531;50.122;8.644;2023-02-23T00:40:53;100190.81;;;10.60;nan
37694;BME280;23531;50.122;8.644;2023-02-23T00:42:54;100183.41;;;10.55;nan
37694;BME280;23531;50.122;8.644;2023-02-23T00:44:57;100188.09;;;10.66;nan
37694;BME280;23531;50.122;8.644;2023-02-23T00:47:06;100186.53;;;10.83;nan
37694;BME280;23531;50.122;8.644;2023-02-23T00:49:07;100185.25;;;10.86;nan
37694;BME280;23531;50.122;8.644;2023-02-23T00:51:11;100185.75;;;10.76;nan
37694;BME280;23531;50.122;8.644;2023-02-23T00:53:13;100193.03;;;10.69;nan
37694;BME280;23531;50.122;8.644;2023-02-23T00:55:14;100189.88;;;10.79;nan
37694;BME280;23531;50.122;8.644;2023-02-23T00:57:15;100187.47;;;10.64;nan
37694;BME280;23531;50.122;8.644;2023-02-23T00:59:17;100196.50;;;10.76;nan
37694;BME280;23531;50.122;8.644;2023-02-23T01:01:18;100186.84;;;10.69;nan
37694;BME280;23531;50.122;8.644;2023-02-23T01:03:20;100196.19;;;10.60;nan
37694;BME280;23531;50.122;8.644;2023-02-23T01:05:21;100193.59;;;10.46;nan
37694;BME280;23531;50.122;8.644;2023-02-23T01:07:24;100191.28;;;10.50;nan
37694;BME280;23531;50.122;8.644;2023-02-23T01:09:25;100191.50;;;10.48;nan
37694;BME280;23531;50.122;8.644;2023-02-23T01:11:28;100189.50;;;10.31;nan
37694;BME280;23531;50.122;8.644;2023-02-23T01:13:30;100191.41;;;10.24;nan
37694;BME280;23531;50.122;8.644;2023-02-23T01:15:31;100190.94;;;10.33;nan
37694;BME280;23531;50.122;8.644;2023-02-23T01:17:33;100190.53;;;10.30;nan
37694;BME280;23531;50.122;8.644;2023-02-23T01:19:34;100187.47;;;10.26;nan
37694;BME280;23531;50.122;8.644;2023-02-23T01:21:36;100185.84;;;10.25;nan
37694;BME280;23531;50.122;8.644;2023-02-23T01:23:40;100187.59;;;10.44;nan
37694;BME280;23531;50.122;8.644;2023-02-23T01:25:41;100180.41;;;10.38;nan
37694;BME280;23531;50.122;8.644;2023-02-23T01:27:43;100179.13;;;10.41;nan
37694;BME280;23531;50.122;8.644;2023-02-23T01:29:44;100183.00;;;10.51;nan
37694;BME280;23531;50.122;8.644;2023-02-23T01:31:46;100178.84;;;10.55;nan
37694;BME280;23531;50.122;8.644;2023-02-23T01:33:51;100186.22;;;10.67;nan
37694;BME280;23531;50.122;8.644;2023-02-23T01:35:56;100187.59;;;10.76;nan
37694;BME280;23531;50.122;8.644;2023-02-23T01:37:58;100184.28;;;10.80;nan
37694;BME280;23531;50.122;8.644;2023-02-23T01:40:00;100183.03;;;10.83;nan
37694;BME280;23531;50.122;8.644;2023-02-23T01:42:10;100179.75;;;10.74;nan
37694;BME280;23531;50.122;8.644;2023-02-23T01:46:35;100177.34;;;10.66;nan
37694;BME280;23531;50.122;8.644;2023-02-23T01:48:38;100179.63;;;10.63;nan
37694;BME280;23531;50.122;8.644;2023-02-23T01:50:43;100178.56;;;10.70;nan
37694;BME280;23531;50.122;8.644;2023-02-23T01:52:45;100182.06;;;10.71;nan
37694;BME280;23531;50.122;8.644;2023-02-23T01:54:48;100182.44;;;10.74;nan
37694;BME280;23531;50.122;8.644;2023-02-23T01:56:52;100178.69;;;10.82;nan
37694;BME280;23531;50.122;8.644;2023-02-23T01:58:57;100187.00;;;10.74;nan
37694;BME280;23531;50.122;8.644;2023-02-23T02:00:59;100184.50;;;10.72;nan
37694;BME280;23531;50.122;8.644;2023-02-23T02:03:03;100174.69;;;10.60;nan
37694;BME280;23531;50.122;8.644;2023-02-23T02:05:07;100182.47;;;10.36;nan
37694;BME280;23531;50.122;8.644;2023-02-23T02:07:13;100183.94;;;10.32;nan
37694;BME280;23531;50.122;8.644;2023-02-23T02:09:15;100180.88;;;10.22;nan
37694;BME280;23531;50.122;8.644;2023-02-23T02:11:17;100177.31;;;10.28;nan
37694;BME280;23531;50.122;8.644;2023-02-23T02:13:31;100175.25;;;10.30;nan
37694;BME280;23531;50.122;8.644;2023-02-23T02:15:34;100174.41;;;10.36;nan
37694;BME280;23531;50.122;8.644;2023-02-23T02:17:38;100171.25;;;10.46;nan
37694;BME280;23531;50.122;8.644;2023-02-23T02:22:16;100176.41;;;10.47;nan
37694;BME280;23531;50.122;8.644;2023-02-23T02:24:34;100173.69;;;10.54;nan
37694;BME280;23531;50.122;8.644;2023-02-23T02:26:44;100171.09;;;10.34;nan
37694;BME280;23531;50.122;8.644;2023-02-23T02:29:07;100171.56;;;10.25;nan
37694;BME280;23531;50.122;8.644;2023-02-23T02:31:26;100168.91;;;10.05;nan
37694;BME280;23531;50.122;8.644;2023-02-23T02:33:44;100173.03;;;10.14;nan
37694;BME280;23531;50.122;8.644;2023-02-23T02:35:59;100171.19;;;10.08;nan
37694;BME280;23531;50.122;8.644;2023-02-23T02:38:12;100167.03;;;10.18;nan
37694;BME280;23531;50.122;8.644;2023-02-23T02:40:19;100167.25;;;10.10;nan
37694;BME280;23531;50.122;8.644;2023-02-23T02:42:28;100168.28;;;10.23;nan
37694;BME280;23531;50.122;8.644;2023-02-23T02:44:34;100164.03;;;10.40;nan
37694;BME280;23531;50.122;8.644;2023-02-23T02:46:39;100162.84;;;10.36;nan
37694;BME280;23531;50.122;8.644;2023-02-23T02:48:44;100160.75;;;10.38;nan
37694;BME280;23531;50.122;8.644;2023-02-23T02:50:49;100162.16;;;10.40;nan
37694;BME280;23531;50.122;8.644;2023-02-23T02:52:54;100158.22;;;10.43;nan
37694;BME280;23531;50.122;8.644;2023-02-23T02:55:00;100152.22;;;10.47;nan
37694;BME280;23531;50.122;8.644;2023-02-23T02:57:03;100160.66;;;10.51;nan
37694;BME280;23531;50.122;8.644;2023-02-23T02:59:06;100155.69;;;10.54;nan
37694;BME280;23531;50.122;8.644;2023-02-23T03:01:27;100150.38;;;10.48;nan
37694;BME280;23531;50.122;8.644;2023-02-23T03:03:47;100154.84;;;10.54;nan
37694;BME280;23531;50.122;8.644;2023-02-23T03:06:07;100154.44;;;10.57;nan
37694;BME280;23531;50.122;8.644;2023-02-23T03:08:27;100156.91;;;10.59;nan
37694;BME280;23531;50.122;8.644;2023-02-23T03:10:52;100151.25;;;10.67;nan
37694;BME280;23531;50.122;8.644;2023-02-23T03:13:16;100143.38;;;10.72;nan
37694;BME280;23531;50.122;8.644;2023-02-23T03:15:38;100147.13;;;10.64;nan
37694;BME280;23531;50.122;8.644;2023-02-23T03:18:03;100149.63;;;10.66;nan
37694;BME280;23531;50.122;8.644;2023-02-23T03:20:29;100144.03;;;10.67;nan
37694;BME280;23531;50.122;8.644;2023-02-23T03:22:55;100146.53;;;10.62;nan
37694;BME280;23531;50.122;8.644;2023-02-23T03:25:17;100151.69;;;10.64;nan
37694;BME280;23531;50.122;8.644;2023-02-23T03:27:43;100151.25;;;10.67;nan
37694;BME280;23531;50.122;8.644;2023-02-23T03:30:07;100152.66;;;10.76;nan
37694;BME280;23531;50.122;8.644;2023-02-23T03:32:30;100150.66;;;10.65;nan
37694;BME280;23531;50.122;8.644;2023-02-23T03:34:52;100159.72;;;10.70;nan
37694;BME280;23531;50.122;8.644;2023-02-23T03:37:15;100164.72;;;10.67;nan
37694;BME280;23531;50.122;8.644;2023-02-23T03:39:38;100151.88;;;10.69;nan
37694;BME280;23531;50.122;8.644;2023-02-23T03:41:59;100166.63;;;10.60;nan
37694;BME280;23531;50.122;8.644;2023-02-23T03:44:22;100160.44;;;10.59;nan
37694;BME280;23531;50.122;8.644;2023-02-23T03:46:43;100164.38;;;10.50;nan
37694;BME280;23531;50.122;8.644;2023-02-23T03:49:06;100167.94;;;10.44;nan
37694;BME280;23531;50.122;8.644;2023-02-23T03:51:27;100168.22;;;10.36;nan
37694;BME280;23531;50.122;8.644;2023-02-23T03:53:49;100165.06;;;10.39;nan
37694;BME280;23531;50.122;8.644;2023-02-23T03:56:11;100169.19;;;10.48;nan
37694;BME280;23531;50.122;8.644;2023-02-23T03:58:32;100161.06;;;10.54;nan
37694;BME280;23531;50.122;8.644;2023-02-23T04:00:57;100158.38;;;10.54;nan
37694;BME280;23531;50.122;8.644;2023-02-23T04:03:17;100167.06;;;10.57;nan
37694;BME280;23531;50.122;8.644;2023-02-23T04:05:37;100164.63;;;10.48;nan
37694;BME280;23531;50.122;8.644;2023-02-23T04:07:57;100164.84;;;10.47;nan
37694;BME280;23531;50.122;8.644;2023-02-23T04:10:20;100165.06;;;10.45;nan
37694;BME280;23531;50.122;8.644;2023-02-23T04:12:42;100172.25;;;10.51;nan
37694;BME280;23531;50.122;8.644;2023-02-23T04:15:06;100166.00;;;10.58;nan
37694;BME280;23531;50.122;8.644;2023-02-23T04:17:10;100167.41;;;10.67;nan
37694;BME280;23531;50.122;8.644;2023-02-23T04:19:11;100171.75;;;10.68;nan
37694;BME280;23531;50.122;8.644;2023-02-23T04:21:13;100170.56;;;10.57;nan
37694;BME280;23531;50.122;8.644;2023-02-23T04:23:14;100171.81;;;10.54;nan
37694;BME280;23531;50.122;8.644;2023-02-23T04:25:16;100167.91;;;10.50;nan
37694;BME280;23531;50.122;8.644;2023-02-23T04:27:18;100169.75;;;10.57;nan
37694;BME280;23531;50.122;8.644;2023-02-23T04:29:20;100168.09;;;10.55;nan
37694;BME280;23531;50.122;8.644;2023-02-23T04:31:21;100178.03;;;10.55;nan
37694;BME280;23531;50.122;8.644;2023-02-23T04:33:25;100170.72;;;10.62;nan
37694;BME280;23531;50.122;8.644;2023-02-23T04:35:26;100171.59;;;10.56;nan
37694;BME280;23531;50.122;8.644;2023-02-23T04:37:30;100173.47;;;10.55;nan
37694;BME280;23531;50.122;8.644;2023-02-23T04:39:31;100176.97;;;10.56;nan
37694;BME280;23531;50.122;8.644;2023-02-23T04:41:33;100178.59;;;10.64;nan
37694;BME280;23531;50.122;8.644;2023-02-23T04:43:35;100174.44;;;10.68;nan
37694;BME280;23531;50.122;8.644;2023-02-23T04:45:36;100178.78;;;10.69;nan
37694;BME280;23531;50.122;8.644;2023-02-23T04:47:38;100178.63;;;10.57;nan
37694;BME280;23531;50.122;8.644;2023-02-23T04:49:41;100179.19;;;10.66;nan
37694;BME280;23531;50.122;8.644;2023-02-23T04:51:42;100175.41;;;10.73;nan
37694;BME280;23531;50.122;8.644;2023-02-23T04:53:44;100169.22;;;10.73;nan
37694;BME280;23531;50.122;8.644;2023-02-23T04:55:45;100175.88;;;10.70;nan
37694;BME280;23531;50.122;8.644;2023-02-23T04:57:50;100173.41;;;10.62;nan
37694;BME280;23531;50.122;8.644;2023-02-23T04:59:52;100177.94;;;10.68;nan
37694;BME280;23531;50.122;8.644;2023-02-23T05:01:53;100170.69;;;10.69;nan
37694;BME280;23531;50.122;8.644;2023-02-23T05:03:55;100176.69;;;10.71;nan
37694;BME280;23531;50.122;8.644;2023-02-23T05:05:58;100171.25;;;10.77;nan
37694;BME280;23531;50.122;8.644;2023-02-23T05:08:00;100173.72;;;10.79;nan
37694;BME280;23531;50.122;8.644;2023-02-23T05:10:03;100167.81;;;10.64;nan
37694;BME280;23531;50.122;8.644;2023-02-23T05:12:05;100179.19;;;10.66;nan
37694;BME280;23531;50.122;8.644;2023-02-23T05:14:07;100172.16;;;10.71;nan
37694;BME280;23531;50.122;8.644;2023-02-23T05:16:09;100181.88;;;10.66;nan
37694;BME280;23531;50.122;8.644;2023-02-23T05:18:11;100179.25;;;10.59;nan
37694;BME280;23531;50.122;8.644;2023-02-23T05:20:13;100178.06;;;10.48;nan
37694;BME280;23531;50.122;8.644;2023-02-23T05:22:16;100178.41;;;10.59;nan
37694;BME280;23531;50.122;8.644;2023-02-23T05:24:18;100182.16;;;10.58;nan
37694;BME280;23531;50.122;8.644;2023-02-23T05:26:20;100186.66;;;10.64;nan
37694;BME280;23531;50.122;8.644;2023-02-23T05:31:24;100180.91;;;10.60;nan
37694;BME280;23531;50.122;8.644;2023-02-23T05:33:26;100185.81;;;10.63;nan
37694;BME280;23531;50.122;8.644;2023-02-23T05:35:29;100175.69;;;10.65;nan
37694;BME280;23531;50.122;8.644;2023-02-23T05:37:32;100179.97;;;10.73;nan
37694;BME280;23531;50.122;8.644;2023-02-23T05:39:33;100179.25;;;10.59;nan
37694;BME280;23531;50.122;8.644;2023-02-23T05:41:35;100181.34;;;10.50;nan
37694;BME280;23531;50.122;8.644;2023-02-23T05:43:37;100180.09;;;10.53;nan
37694;BME280;23531;50.122;8.644;2023-02-23T05:45:39;100177.97;;;10.62;nan
37694;BME280;23531;50.122;8.644;2023-02-23T05:47:41;100181.06;;;10.65;nan
37694;BME280;23531;50.122;8.644;2023-02-23T05:49:43;100180.66;;;10.62;nan
37694;BME280;23531;50.122;8.644;2023-02-23T05:51:45;100187.53;;;10.51;nan
37694;BME280;23531;50.122;8.644;2023-02-23T05:53:48;100180.13;;;10.46;nan
37694;BME280;23531;50.122;8.644;2023-02-23T05:55:50;100187.53;;;10.51;nan
37694;BME280;23531;50.122;8.644;2023-02-23T05:57:52;100182.75;;;10.60;nan
37694;BME280;23531;50.122;8.644;2023-02-23T05:59:54;100188.72;;;10.62;nan
37694;BME280;23531;50.122;8.644;2023-02-23T06:01:55;100187.47;;;10.64;nan
37694;BME280;23531;50.122;8.644;2023-02-23T06:03:57;100187.03;;;10.67;nan
37694;BME280;23531;50.122;8.644;2023-02-23T06:05:58;100187.47;;;10.64;nan
37694;BME280;23531;50.122;8.644;2023-02-23T06:08:00;100189.59;;;10.55;nan
37694;BME280;23531;50.122;8.644;2023-02-23T06:10:04;100188.16;;;10.53;nan
37694;BME280;23531;50.122;8.644;2023-02-23T06:12:06;100190.22;;;10.58;nan
37694;BME280;23531;50.122;8.644;2023-02-23T06:14:08;100186.97;;;10.49;nan
37694;BME280;23531;50.122;8.644;2023-02-23T06:16:09;100189.66;;;10.49;nan
37694;BME280;23531;50.122;8.644;2023-02-23T06:18:11;100191.31;;;10.43;nan
37694;BME280;23531;50.122;8.644;2023-02-23T06:20:12;100192.09;;;10.50;nan
37694;BME280;23531;50.122;8.644;2023-02-23T06:22:14;100192.91;;;10.58;nan
37694;BME280;23531;50.122;8.644;2023-02-23T06:24:17;100195.66;;;10.44;nan
37694;BME280;23531;50.122;8.644;2023-02-23T06:26:20;100195.97;;;10.61;nan
37694;BME280;23531;50.122;8.644;2023-02-23T06:28:22;100193.28;;;10.61;nan
37694;BME280;23531;50.122;8.644;2023-02-23T06:30:23;100198.66;;;10.61;nan
37694;BME280;23531;50.122;8.644;2023-02-23T06:32:25;100193.69;;;10.65;nan
37694;BME280;23531;50.122;8.644;2023-02-23T06:34:27;100200.97;;;10.58;nan
37694;BME280;23531;50.122;8.644;2023-02-23T06:36:29;100203.47;;;10.52;nan
37694;BME280;23531;50.122;8.644;2023-02-23T06:38:30;100201.19;;;10.56;nan
37694;BME280;23531;50.122;8.644;2023-02-23T06:40:32;100202.63;;;10.59;nan
37694;BME280;23531;50.122;8.644;2023-02-23T06:42:35;100198.91;;;10.53;nan
37694;BME280;23531;50.122;8.644;2023-02-23T06:44:37;100204.84;;;10.62;nan
37694;BME280;23531;50.122;8.644;2023-02-23T06:46:39;100205.31;;;10.59;nan
37694;BME280;23531;50.122;8.644;2023-02-23T06:51:09;100205.81;;;10.74;nan
37694;BME280;23531;50.122;8.644;2023-02-23T06:53:11;100213.47;;;10.77;nan
37694;BME280;23531;50.122;8.644;2023-02-23T06:55:13;100218.69;;;10.72;nan
37694;BME280;23531;50.122;8.644;2023-02-23T06:57:14;100210.38;;;10.73;nan
37694;BME280;23531;50.122;8.644;2023-02-23T06:59:17;100216.41;;;10.69;nan
37694;BME280;23531;50.122;8.644;2023-02-23T07:01:19;100220.56;;;10.65;nan
37694;BME280;23531;50.122;8.644;2023-02-23T07:03:21;100227.38;;;10.67;nan
37694;BME280;23531;50.122;8.644;2023-02-23T07:05:22;100220.97;;;10.68;nan
37694;BME280;23531;50.122;8.644;2023-02-23T07:07:24;100229.44;;;10.72;nan
37694;BME280;23531;50.122;8.644;2023-02-23T07:09:25;100224.66;;;10.74;nan
37694;BME280;23531;50.122;8.644;2023-02-23T07:11:26;100230.63;;;10.76;nan
37694;BME280;23531;50.122;8.644;2023-02-23T07:13:28;100233.16;;;10.71;nan
37694;BME280;23531;50.122;8.644;2023-02-23T07:15:31;100225.88;;;10.78;nan
37694;BME280;23531;50.122;8.644;2023-02-23T07:17:33;100233.53;;;10.81;nan
37694;BME280;23531;50.122;8.644;2023-02-23T07:19:34;100231.47;;;10.76;nan
37694;BME280;23531;50.122;8.644;2023-02-23T07:21:35;100231.66;;;10.75;nan
37694;BME280;23531;50.122;8.644;2023-02-23T07:23:37;100238.44;;;10.84;nan
37694;BME280;23531;50.122;8.644;2023-02-23T07:25:38;100233.69;;;10.86;nan
37694;BME280;23531;50.122;8.644;2023-02-23T07:27:39;100244.06;;;10.82;nan
37694;BME280;23531;50.122;8.644;2023-02-23T07:29:41;100238.06;;;10.80;nan
37694;BME280;23531;50.122;8.644;2023-02-23T07:31:44;100241.66;;;10.68;nan
37694;BME280;23531;50.122;8.644;2023-02-23T07:33:45;100235.03;;;10.64;nan
37694;BME280;23531;50.122;8.644;2023-02-23T07:35:47;100232.34;;;10.64;nan
37694;BME280;23531;50.122;8.644;2023-02-23T07:37:49;100235.09;;;10.57;nan
37694;BME280;23531;50.122;8.644;2023-02-23T07:39:50;100241.09;;;10.59;nan
37694;BME280;23531;50.122;8.644;2023-02-23T07:41:51;100239.81;;;10.62;nan
37694;BME280;23531;50.122;8.644;2023-02-23T07:43:53;100239.81;;;10.62;nan
37694;BME280;23531;50.122;8.644;2023-02-23T07:45:57;100238.56;;;10.64;nan
37694;BME280;23531;50.122;8.644;2023-02-23T07:48:00;100245.56;;;10.72;nan
37694;BME280;23531;50.122;8.644;2023-02-23T07:50:01;100249.88;;;10.79;nan
37694;BME280;23531;50.122;8.644;2023-02-23T07:52:08;100247.19;;;10.79;nan
37694;BME280;23531;50.122;8.644;2023-02-23T07:54:10;100244.84;;;10.89;nan
37694;BME280;23531;50.122;8.644;2023-02-23T07:56:11;100247.72;;;10.95;nan
37694;BME280;23531;50.122;8.644;2023-02-23T07:58:13;100251.72;;;10.79;nan
37694;BME280;23531;50.122;8.644;2023-02-23T08:00:14;100239.66;;;10.57;nan
37694;BME280;23531;50.122;8.644;2023-02-23T08:02:16;100251.31;;;10.37;nan
37694;BME280;23531;50.122;8.644;2023-02-23T08:04:18;100251.72;;;10.34;nan
37694;BME280;23531;50.122;8.644;2023-02-23T08:06:20;100259.38;;;10.37;nan
37694;BME280;23531;50.122;8.644;2023-02-23T08:08:21;100258.75;;;10.35;nan
37694;BME280;23531;50.122;8.644;2023-02-23T08:10:22;100254.41;;;10.34;nan
37694;BME280;23531;50.122;8.644;2023-02-23T08:12:24;100252.34;;;10.36;nan
37694;BME280;23531;50.122;8.644;2023-02-23T08:14:25;100250.81;;;10.53;nan
37694;BME280;23531;50.122;8.644;2023-02-23T08:16:27;100253.03;;;10.70;nan
37694;BME280;23531;50.122;8.644;2023-02-23T08:18:29;100254.84;;;10.76;nan
37694;BME280;23531;50.122;8.644;2023-02-23T08:20:31;100258.16;;;10.78;nan
37694;BME280;23531;50.122;8.644;2023-02-23T08:22:33;100259.59;;;10.74;nan
37694;BME280;23531;50.122;8.644;2023-02-23T08:24:34;100253.59;;;10.78;nan
37694;BME280;23531;50.122;8.644;2023-02-23T08:26:36;100260.56;;;10.86;nan
37694;BME280;23531;50.122;8.644;2023-02-23T08:28:37;100258.34;;;10.83;nan
37694;BME280;23531;50.122;8.644;2023-02-23T08:30:40;100265.78;;;10.81;nan
37694;BME280;23531;50.122;8.644;2023-02-23T08:32:42;100261.50;;;10.67;nan
37694;BME280;23531;50.122;8.644;2023-02-23T08:34:43;100266.00;;;10.79;nan
37694;BME280;23531;50.122;8.644;2023-02-23T08:36:46;100270.50;;;10.92;nan
37694;BME280;23531;50.122;8.644;2023-02-23T08:38:47;100268.84;;;10.91;nan
37694;BME280;23531;50.122;8.644;2023-02-23T08:40:49;100268.84;;;10.84;nan
37694;BME280;23531;50.122;8.644;2023-02-23T08:42:50;100271.94;;;10.88;nan
37694;BME280;23531;50.122;8.644;2023-02-23T08:44:51;100270.91;;;10.89;nan
37694;BME280;23531;50.122;8.644;2023-02-23T08:46:53;100279.19;;;10.87;nan
37694;BME280;23531;50.122;8.644;2023-02-23T08:48:54;100271.75;;;10.89;nan
37694;BME280;23531;50.122;8.644;2023-02-23T08:50:56;100275.25;;;10.90;nan
37694;BME280;23531;50.122;8.644;2023-02-23T08:52:59;100271.31;;;10.93;nan
37694;BME280;23531;50.122;8.644;2023-02-23T08:55:00;100277.25;;;11.01;nan
37694;BME280;23531;50.122;8.644;2023-02-23T08:57:01;100267.94;;;11.04;nan
37694;BME280;23531;50.122;8.644;2023-02-23T08:59:03;100266.66;;;11.06;nan
37694;BME280;23531;50.122;8.644;2023-02-23T09:01:05;100272.00;;;11.13;nan
37694;BME280;23531;50.122;8.644;2023-02-23T09:03:07;100274.56;;;11.01;nan
37694;BME280;23531;50.122;8.644;2023-02-23T09:05:09;100282.44;;;11.03;nan
37694;BME280;23531;50.122;8.644;2023-02-23T09:07:12;100279.06;;;11.07;nan
37694;BME280;23531;50.122;8.644;2023-02-23T09:09:16;100272.69;;;11.02;nan
37694;BME280;23531;50.122;8.644;2023-02-23T09:11:18;100281.38;;;11.04;nan
37694;BME280;23531;50.122;8.644;2023-02-23T09:13:20;100284.84;;;11.11;nan
37694;BME280;23531;50.122;8.644;2023-02-23T09:15:21;100279.00;;;11.20;nan
37694;BME280;23531;50.122;8.644;2023-02-23T09:17:23;100280.44;;;11.23;nan
37694;BME280;23531;50.122;8.644;2023-02-23T09:19:25;100280.63;;;11.21;nan
37694;BME280;23531;50.122;8.644;2023-02-23T09:21:27;100279.81;;;11.21;nan
37694;BME280;23531;50.122;8.644;2023-02-23T09:23:29;100282.94;;;11.18;nan
37694;BME280;23531;50.122;8.644;2023-02-23T09:25:33;100284.59;;;11.19;nan
37694;BME280;23531;50.122;8.644;2023-02-23T09:27:34;100283.75;;;11.18;nan
37694;BME280;23531;50.122;8.644;2023-02-23T09:29:36;100280.63;;;11.21;nan
37694;BME280;23531;50.122;8.644;2023-02-23T09:31:40;100287.88;;;11.21;nan
37694;BME280;23531;50.122;8.644;2023-02-23T09:33:42;100282.69;;;11.26;nan
37694;BME280;23531;50.122;8.644;2023-02-23T09:35:44;100285.38;;;11.26;nan
37694;BME280;23531;50.122;8.644;2023-02-23T09:37:45;100289.72;;;11.27;nan
37694;BME280;23531;50.122;8.644;2023-02-23T09:39:47;100292.22;;;11.22;nan
37694;BME280;23531;50.122;8.644;2023-02-23T09:41:59;100298.44;;;11.22;nan
37694;BME280;23531;50.122;8.644;2023-02-23T09:44:04;100297.75;;;11.34;nan
37694;BME280;23531;50.122;8.644;2023-02-23T09:46:10;100297.94;;;11.39;nan
37694;BME280;23531;50.122;8.644;2023-02-23T09:48:15;100297.53;;;11.35;nan
37694;BME280;23531;50.122;8.644;2023-02-23T09:50:19;100300.91;;;11.24;nan
37694;BME280;23531;50.122;8.644;2023-02-23T09:52:23;100294.22;;;11.33;nan
37694;BME280;23531;50.122;8.644;2023-02-23T09:54:25;100290.31;;;11.29;nan
37694;BME280;23531;50.122;8.644;2023-02-23T09:56:29;100295.81;;;11.41;nan
37694;BME280;23531;50.122;8.644;2023-02-23T09:58:34;100291.03;;;11.43;nan
37694;BME280;23531;50.122;8.644;2023-02-23T10:00:36;100293.59;;;11.38;nan
37694;BME280;23531;50.122;8.644;2023-02-23T10:02:42;100295.88;;;11.34;nan
37694;BME280;23531;50.122;8.644;2023-02-23T10:04:51;100286.81;;;11.28;nan
37694;BME280;23531;50.122;8.644;2023-02-23T10:06:58;100289.66;;;11.34;nan
37694;BME280;23531;50.122;8.644;2023-02-23T10:09:07;100293.06;;;11.22;nan
37694;BME280;23531;50.122;8.644;2023-02-23T10:11:17;100299.06;;;11.24;nan
37694;BME280;23531;50.122;8.644;2023-02-23T10:13:25;100297.94;;;11.39;nan
37694;BME280;23531;50.122;8.644;2023-02-23T10:15:32;100287.00;;;11.58;nan
37694;BME280;23531;50.122;8.644;2023-02-23T10:17:38;100296.13;;;11.57;nan
37694;BME280;23531;50.122;8.644;2023-02-23T10:19:43;100298.16;;;11.62;nan
37694;BME280;23531;50.122;8.644;2023-02-23T10:21:50;100295.78;;;11.72;nan
37694;BME280;23531;50.122;8.644;2023-02-23T10:23:56;100304.28;;;11.76;nan
37694;BME280;23531;50.122;8.644;2023-02-23T10:25:58;100304.06;;;11.77;nan
37694;BME280;23531;50.122;8.644;2023-02-23T10:28:00;100305.56;;;11.67;nan
37694;BME280;23531;50.122;8.644;2023-02-23T10:30:03;100303.88;;;11.72;nan
37694;BME280;23531;50.122;8.644;2023-02-23T10:32:06;100305.66;;;11.85;nan
37694;BME280;23531;50.122;8.644;2023-02-23T10:34:13;100300.81;;;11.93;nan
37694;BME280;23531;50.122;8.644;2023-02-23T10:36:16;100309.63;;;12.00;nan
37694;BME280;23531;50.122;8.644;2023-02-23T10:38:18;100304.16;;;11.89;nan
37694;BME280;23531;50.122;8.644;2023-02-23T10:40:21;100304.31;;;11.94;nan
37694;BME280;23531;50.122;8.644;2023-02-23T10:42:24;100303.84;;;11.79;nan
37694;BME280;23531;50.122;8.644;2023-02-23T10:44:28;100304.31;;;11.69;nan
37694;BME280;23531;50.122;8.644;2023-02-23T10:46:30;100306.75;;;11.77;nan
37694;BME280;23531;50.122;8.644;2023-02-23T10:48:37;100309.16;;;11.85;nan
37694;BME280;23531;50.122;8.644;2023-02-23T10:50:42;100311.41;;;11.88;nan
37694;BME280;23531;50.122;8.644;2023-02-23T10:52:45;100303.50;;;11.93;nan
37694;BME280;23531;50.122;8.644;2023-02-23T10:54:47;100312.56;;;11.99;nan
37694;BME280;23531;50.122;8.644;2023-02-23T10:56:49;100311.47;;;12.07;nan
37694;BME280;23531;50.122;8.644;2023-02-23T10:58:50;100318.66;;;12.13;nan
37694;BME280;23531;50.122;8.644;2023-02-23T11:00:53;100312.59;;;12.17;nan
37694;BME280;23531;50.122;8.644;2023-02-23T11:02:55;100312.97;;;12.21;nan
37694;BME280;23531;50.122;8.644;2023-02-23T11:04:59;100302.56;;;12.24;nan
37694;BME280;23531;50.122;8.644;2023-02-23T11:07:05;100318.88;;;12.11;nan
37694;BME280;23531;50.122;8.644;2023-02-23T11:09:15;100312.44;;;12.12;nan
37694;BME280;23531;50.122;8.644;2023-02-23T11:11:17;100310.44;;;12.26;nan
37694;BME280;23531;50.122;8.644;2023-02-23T11:13:25;100300.56;;;12.38;nan
37694;BME280;23531;50.122;8.644;2023-02-23T11:15:27;100299.81;;;12.49;nan
37694;BME280;23531;50.122;8.644;2023-02-23T11:17:30;100304.97;;;12.51;nan
37694;BME280;23531;50.122;8.644;2023-02-23T11:19:33;100303.84;;;12.58;nan
37694;BME280;23531;50.122;8.644;2023-02-23T11:21:37;100304.38;;;12.49;nan